sensor_id;sensor_type;location;lat;lon;timestamp;temperature;humidity
69009;SHT31;56065;52.472;13.380;2022-11-15T00:01:08;6.96;86.66
69009;SHT31;56065;52.472;13.380;2022-11-15T00:03:33;6.93;86.42
69009;SHT31;56065;52.472;13.380;2022-11-15T00:06:03;6.92;86.38
69009;SHT31;56065;52.472;13.380;2022-11-15T00:08:31;6.92;86.50
69009;SHT31;56065;52.472;13.380;2022-11-15T00:10:57;6.93;86.52
69009;SHT31;56065;52.472;13.380;2022-11-15T00:13:23;6.95;86.48
69009;SHT31;56065;52.472;13.380;2022-11-15T00:15:49;6.95;86.75
69009;SHT31;56065;52.472;13.380;2022-11-15T00:18:15;6.92;87.02
69009;SHT31;56065;52.472;13.380;2022-11-15T00:20:41;6.93;86.71
69009;SHT31;56065;52.472;13.380;2022-11-15T00:23:07;6.92;86.73
69009;SHT31;56065;52.472;13.380;2022-11-15T00:25:32;6.89;86.65
69009;SHT31;56065;52.472;13.380;2022-11-15T00:27:59;6.87;86.52
69009;SHT31;56065;52.472;13.380;2022-11-15T00:30:24;6.82;86.32
69009;SHT31;56065;52.472;13.380;2022-11-15T00:32:50;6.81;86.39
69009;SHT31;56065;52.472;13.380;2022-11-15T00:35:16;6.78;86.28
69009;SHT31;56065;52.472;13.380;2022-11-15T00:37:41;6.77;86.09
69009;SHT31;56065;52.472;13.380;2022-11-15T00:40:07;6.72;86.25
69009;SHT31;56065;52.472;13.380;2022-11-15T00:42:33;6.68;86.25
69009;SHT31;56065;52.472;13.380;2022-11-15T00:44:58;6.68;86.29
69009;SHT31;56065;52.472;13.380;2022-11-15T00:47:23;6.68;86.30
69009;SHT31;56065;52.472;13.380;2022-11-15T00:49:49;6.68;86.27
69009;SHT31;56065;52.472;13.380;2022-11-15T00:52:14;6.68;86.25
69009;SHT31;56065;52.472;13.380;2022-11-15T00:54:39;6.64;86.46
69009;SHT31;56065;52.472;13.380;2022-11-15T00:57:05;6.64;86.53
69009;SHT31;56065;52.472;13.380;2022-11-15T00:59:30;6.60;86.70
69009;SHT31;56065;52.472;13.380;2022-11-15T01:01:55;6.63;86.55
69009;SHT31;56065;52.472;13.380;2022-11-15T01:04:21;6.61;87.20
69009;SHT31;56065;52.472;13.380;2022-11-15T01:06:46;6.63;86.76
69009;SHT31;56065;52.472;13.380;2022-11-15T01:09:11;6.64;86.87
69009;SHT31;56065;52.472;13.380;2022-11-15T01:11:37;6.64;86.79
69009;SHT31;56065;52.472;13.380;2022-11-15T01:14:02;6.68;86.74
69009;SHT31;56065;52.472;13.380;2022-11-15T01:16:27;6.71;86.59
69009;SHT31;56065;52.472;13.380;2022-11-15T01:18:53;6.68;86.65
69009;SHT31;56065;52.472;13.380;2022-11-15T01:21:19;6.67;86.64
69009;SHT31;56065;52.472;13.380;2022-11-15T01:23:44;6.67;86.54
69009;SHT31;56065;52.472;13.380;2022-11-15T01:26:12;6.65;86.32
69009;SHT31;56065;52.472;13.380;2022-11-15T01:28:39;6.65;86.57
69009;SHT31;56065;52.472;13.380;2022-11-15T01:31:09;6.63;86.41
69009;SHT31;56065;52.472;13.380;2022-11-15T01:33:35;6.60;86.52
69009;SHT31;56065;52.472;13.380;2022-11-15T01:36:10;6.58;86.34
69009;SHT31;56065;52.472;13.380;2022-11-15T01:38:35;6.55;86.42
69009;SHT31;56065;52.472;13.380;2022-11-15T01:41:01;6.54;86.98
69009;SHT31;56065;52.472;13.380;2022-11-15T01:43:32;6.54;86.69
69009;SHT31;56065;52.472;13.380;2022-11-15T01:46:08;6.52;86.60
69009;SHT31;56065;52.472;13.380;2022-11-15T01:48:40;6.51;86.54
69009;SHT31;56065;52.472;13.380;2022-11-15T01:51:08;6.45;86.44
69009;SHT31;56065;52.472;13.380;2022-11-15T01:53:35;6.50;86.36
69009;SHT31;56065;52.472;13.380;2022-11-15T01:56:04;6.48;86.39
69009;SHT31;56065;52.472;13.380;2022-11-15T01:58:31;6.47;86.29
69009;SHT31;56065;52.472;13.380;2022-11-15T02:00:57;6.48;86.32
69009;SHT31;56065;52.472;13.380;2022-11-15T02:03:26;6.45;86.38
69009;SHT31;56065;52.472;13.380;2022-11-15T02:05:53;6.44;86.38
69009;SHT31;56065;52.472;13.380;2022-11-15T02:08:19;6.47;86.34
69009;SHT31;56065;52.472;13.380;2022-11-15T02:10:46;6.45;86.30
69009;SHT31;56065;52.472;13.380;2022-11-15T02:13:16;6.42;86.32
69009;SHT31;56065;52.472;13.380;2022-11-15T02:15:52;6.37;86.36
69009;SHT31;56065;52.472;13.380;2022-11-15T02:18:29;6.37;86.27
69009;SHT31;56065;52.472;13.380;2022-11-15T02:21:06;6.31;86.30
69009;SHT31;56065;52.472;13.380;2022-11-15T02:32:10;6.34;86.55
69009;SHT31;56065;52.472;13.380;2022-11-15T02:37:23;6.31;86.94
69009;SHT31;56065;52.472;13.380;2022-11-15T02:40:27;6.31;86.95
69009;SHT31;56065;52.472;13.380;2022-11-15T02:42:55;6.33;86.83
69009;SHT31;56065;52.472;13.380;2022-11-15T02:45:46;6.33;86.68
69009;SHT31;56065;52.472;13.380;2022-11-15T02:48:13;6.24;87.02
69009;SHT31;56065;52.472;13.380;2022-11-15T02:50:40;6.23;86.94
69009;SHT31;56065;52.472;13.380;2022-11-15T02:53:08;6.23;86.86
69009;SHT31;56065;52.472;13.380;2022-11-15T02:55:36;6.19;86.70
69009;SHT31;56065;52.472;13.380;2022-11-15T03:00:58;6.10;86.87
69009;SHT31;56065;52.472;13.380;2022-11-15T03:03:43;6.06;86.78
69009;SHT31;56065;52.472;13.380;2022-11-15T03:06:37;6.09;87.00
69009;SHT31;56065;52.472;13.380;2022-11-15T03:09:40;6.02;86.92
69009;SHT31;56065;52.472;13.380;2022-11-15T03:14:59;6.10;87.25
69009;SHT31;56065;52.472;13.380;2022-11-15T03:17:43;6.10;86.96
69009;SHT31;56065;52.472;13.380;2022-11-15T03:20:11;6.13;86.69
69009;SHT31;56065;52.472;13.380;2022-11-15T03:22:42;6.17;87.38
69009;SHT31;56065;52.472;13.380;2022-11-15T03:25:10;6.14;87.61
69009;SHT31;56065;52.472;13.380;2022-11-15T03:27:43;6.17;87.20
69009;SHT31;56065;52.472;13.380;2022-11-15T03:30:09;6.16;87.03
69009;SHT31;56065;52.472;13.380;2022-11-15T03:32:44;6.17;86.89
69009;SHT31;56065;52.472;13.380;2022-11-15T03:35:17;6.21;86.91
69009;SHT31;56065;52.472;13.380;2022-11-15T03:37:59;6.19;86.72
69009;SHT31;56065;52.472;13.380;2022-11-15T03:40:40;6.19;86.58
69009;SHT31;56065;52.472;13.380;2022-11-15T03:43:12;6.20;86.64
69009;SHT31;56065;52.472;13.380;2022-11-15T03:46:00;6.23;86.68
69009;SHT31;56065;52.472;13.380;2022-11-15T03:48:33;6.24;86.55
69009;SHT31;56065;52.472;13.380;2022-11-15T03:50:59;6.23;86.52
69009;SHT31;56065;52.472;13.380;2022-11-15T03:53:25;6.24;86.73
69009;SHT31;56065;52.472;13.380;2022-11-15T03:55:50;6.29;86.61
69009;SHT31;56065;52.472;13.380;2022-11-15T03:58:16;6.24;87.47
69009;SHT31;56065;52.472;13.380;2022-11-15T04:00:41;6.31;86.74
69009;SHT31;56065;52.472;13.380;2022-11-15T04:03:06;6.33;86.68
69009;SHT31;56065;52.472;13.380;2022-11-15T04:05:33;6.29;87.22
69009;SHT31;56065;52.472;13.380;2022-11-15T04:07:58;6.37;86.76
69009;SHT31;56065;52.472;13.380;2022-11-15T04:10:24;6.34;86.73
69009;SHT31;56065;52.472;13.380;2022-11-15T04:12:49;6.31;86.85
69009;SHT31;56065;52.472;13.380;2022-11-15T04:15:17;6.33;86.78
69009;SHT31;56065;52.472;13.380;2022-11-15T04:20:18;6.37;86.59
69009;SHT31;56065;52.472;13.380;2022-11-15T04:23:04;6.36;86.91
69009;SHT31;56065;52.472;13.380;2022-11-15T04:25:54;6.36;86.61
69009;SHT31;56065;52.472;13.380;2022-11-15T04:28:20;6.36;87.00
69009;SHT31;56065;52.472;13.380;2022-11-15T04:30:45;6.38;86.76
69009;SHT31;56065;52.472;13.380;2022-11-15T04:33:11;6.42;86.85
69009;SHT31;56065;52.472;13.380;2022-11-15T04:35:36;6.44;86.81
69009;SHT31;56065;52.472;13.380;2022-11-15T04:38:04;6.50;86.70
69009;SHT31;56065;52.472;13.380;2022-11-15T04:40:30;6.48;86.60
69009;SHT31;56065;52.472;13.380;2022-11-15T04:42:55;6.47;86.72
69009;SHT31;56065;52.472;13.380;2022-11-15T04:45:21;6.44;86.55
69009;SHT31;56065;52.472;13.380;2022-11-15T04:47:46;6.47;86.46
69009;SHT31;56065;52.472;13.380;2022-11-15T04:50:13;6.40;86.40
69009;SHT31;56065;52.472;13.380;2022-11-15T04:52:43;6.42;86.32
69009;SHT31;56065;52.472;13.380;2022-11-15T04:55:10;6.42;86.21
69009;SHT31;56065;52.472;13.380;2022-11-15T04:57:36;6.42;86.28
69009;SHT31;56065;52.472;13.380;2022-11-15T05:00:07;6.41;86.24
69009;SHT31;56065;52.472;13.380;2022-11-15T05:02:33;6.34;86.36
69009;SHT31;56065;52.472;13.380;2022-11-15T05:05:17;6.29;86.34
69009;SHT31;56065;52.472;13.380;2022-11-15T05:07:42;6.30;87.04
69009;SHT31;56065;52.472;13.380;2022-11-15T05:10:08;6.31;86.77
69009;SHT31;56065;52.472;13.380;2022-11-15T05:12:33;6.38;87.36
69009;SHT31;56065;52.472;13.380;2022-11-15T05:14:58;6.40;87.71
69009;SHT31;56065;52.472;13.380;2022-11-15T05:17:24;6.50;86.81
69009;SHT31;56065;52.472;13.380;2022-11-15T05:19:49;6.50;86.65
69009;SHT31;56065;52.472;13.380;2022-11-15T05:22:14;6.48;86.46
69009;SHT31;56065;52.472;13.380;2022-11-15T05:24:40;6.52;86.93
69009;SHT31;56065;52.472;13.380;2022-11-15T05:27:05;6.52;86.64
69009;SHT31;56065;52.472;13.380;2022-11-15T05:29:30;6.55;86.40
69009;SHT31;56065;52.472;13.380;2022-11-15T05:31:56;6.54;86.55
69009;SHT31;56065;52.472;13.380;2022-11-15T05:34:21;6.54;86.54
69009;SHT31;56065;52.472;13.380;2022-11-15T05:36:48;6.54;86.43
69009;SHT31;56065;52.472;13.380;2022-11-15T05:39:14;6.51;86.95
69009;SHT31;56065;52.472;13.380;2022-11-15T05:41:42;6.55;86.68
69009;SHT31;56065;52.472;13.380;2022-11-15T05:44:11;6.57;86.57
69009;SHT31;56065;52.472;13.380;2022-11-15T05:46:40;6.54;86.36
69009;SHT31;56065;52.472;13.380;2022-11-15T05:49:07;6.55;86.54
69009;SHT31;56065;52.472;13.380;2022-11-15T05:51:35;6.52;86.41
69009;SHT31;56065;52.472;13.380;2022-11-15T05:54:01;6.50;86.78
69009;SHT31;56065;52.472;13.380;2022-11-15T05:56:28;6.52;86.93
69009;SHT31;56065;52.472;13.380;2022-11-15T05:58:54;6.52;86.58
69009;SHT31;56065;52.472;13.380;2022-11-15T06:01:21;6.51;87.00
69009;SHT31;56065;52.472;13.380;2022-11-15T06:03:46;6.55;86.80
69009;SHT31;56065;52.472;13.380;2022-11-15T06:06:12;6.54;86.69
69009;SHT31;56065;52.472;13.380;2022-11-15T06:08:37;6.48;86.55
69009;SHT31;56065;52.472;13.380;2022-11-15T06:11:04;6.45;86.53
69009;SHT31;56065;52.472;13.380;2022-11-15T06:13:30;6.41;86.38
69009;SHT31;56065;52.472;13.380;2022-11-15T06:15:55;6.38;86.40
69009;SHT31;56065;52.472;13.380;2022-11-15T06:18:22;6.34;86.44
69009;SHT31;56065;52.472;13.380;2022-11-15T06:20:47;6.27;86.80
69009;SHT31;56065;52.472;13.380;2022-11-15T06:23:12;6.31;86.86
69009;SHT31;56065;52.472;13.380;2022-11-15T06:25:38;6.30;86.61
69009;SHT31;56065;52.472;13.380;2022-11-15T06:28:03;6.30;86.59
69009;SHT31;56065;52.472;13.380;2022-11-15T06:30:29;6.31;86.52
69009;SHT31;56065;52.472;13.380;2022-11-15T06:33:05;6.29;86.53
69009;SHT31;56065;52.472;13.380;2022-11-15T06:35:33;6.26;86.64
69009;SHT31;56065;52.472;13.380;2022-11-15T06:38:07;6.23;86.90
69009;SHT31;56065;52.472;13.380;2022-11-15T06:40:34;6.23;87.13
69009;SHT31;56065;52.472;13.380;2022-11-15T06:43:00;6.24;87.06
69009;SHT31;56065;52.472;13.380;2022-11-15T06:45:26;6.26;87.20
69009;SHT31;56065;52.472;13.380;2022-11-15T06:47:51;6.31;87.09
69009;SHT31;56065;52.472;13.380;2022-11-15T06:50:17;6.31;87.19
69009;SHT31;56065;52.472;13.380;2022-11-15T06:52:42;6.36;87.16
69009;SHT31;56065;52.472;13.380;2022-11-15T06:55:08;6.45;87.05
69009;SHT31;56065;52.472;13.380;2022-11-15T06:57:33;6.58;86.80
69009;SHT31;56065;52.472;13.380;2022-11-15T06:59:58;6.71;86.48
69009;SHT31;56065;52.472;13.380;2022-11-15T07:02:24;6.78;86.12
69009;SHT31;56065;52.472;13.380;2022-11-15T07:04:49;6.89;85.89
69009;SHT31;56065;52.472;13.380;2022-11-15T07:07:14;7.06;85.80
69009;SHT31;56065;52.472;13.380;2022-11-15T07:09:40;7.12;85.44
69009;SHT31;56065;52.472;13.380;2022-11-15T07:12:05;7.26;85.29
69009;SHT31;56065;52.472;13.380;2022-11-15T07:14:30;7.46;84.93
69009;SHT31;56065;52.472;13.380;2022-11-15T07:16:56;7.56;84.62
69009;SHT31;56065;52.472;13.380;2022-11-15T07:19:21;7.67;84.35
69009;SHT31;56065;52.472;13.380;2022-11-15T07:21:46;7.71;84.31
69009;SHT31;56065;52.472;13.380;2022-11-15T07:24:12;7.80;84.13
69009;SHT31;56065;52.472;13.380;2022-11-15T07:26:37;8.11;83.95
69009;SHT31;56065;52.472;13.380;2022-11-15T07:29:03;8.64;83.22
69009;SHT31;56065;52.472;13.380;2022-11-15T07:31:28;9.00;81.90
69009;SHT31;56065;52.472;13.380;2022-11-15T07:33:53;9.25;81.41
69009;SHT31;56065;52.472;13.380;2022-11-15T07:36:19;9.49;80.58
69009;SHT31;56065;52.472;13.380;2022-11-15T07:38:44;10.00;79.89
69009;SHT31;56065;52.472;13.380;2022-11-15T07:41:09;10.51;78.75
69009;SHT31;56065;52.472;13.380;2022-11-15T07:43:35;10.84;77.51
69009;SHT31;56065;52.472;13.380;2022-11-15T07:46:07;10.91;77.22
69009;SHT31;56065;52.472;13.380;2022-11-15T07:48:38;11.15;77.09
69009;SHT31;56065;52.472;13.380;2022-11-15T07:51:05;11.30;76.40
69009;SHT31;56065;52.472;13.380;2022-11-15T07:53:31;11.84;75.62
69009;SHT31;56065;52.472;13.380;2022-11-15T07:55:56;12.35;74.87
69009;SHT31;56065;52.472;13.380;2022-11-15T07:58:21;12.46;73.99
69009;SHT31;56065;52.472;13.380;2022-11-15T08:00:47;12.35;73.60
69009;SHT31;56065;52.472;13.380;2022-11-15T08:03:14;12.05;74.13
69009;SHT31;56065;52.472;13.380;2022-11-15T08:05:41;12.18;74.41
69009;SHT31;56065;52.472;13.380;2022-11-15T08:08:08;12.25;73.41
69009;SHT31;56065;52.472;13.380;2022-11-15T08:10:34;12.42;73.40
69009;SHT31;56065;52.472;13.380;2022-11-15T08:13:01;12.10;73.71
69009;SHT31;56065;52.472;13.380;2022-11-15T08:15:28;11.88;74.46
69009;SHT31;56065;52.472;13.380;2022-11-15T08:17:58;11.93;74.89
69009;SHT31;56065;52.472;13.380;2022-11-15T08:20:25;12.12;74.77
69009;SHT31;56065;52.472;13.380;2022-11-15T08:22:51;12.52;74.25
69009;SHT31;56065;52.472;13.380;2022-11-15T08:25:17;13.23;71.69
69009;SHT31;56065;52.472;13.380;2022-11-15T08:27:43;14.16;69.87
69009;SHT31;56065;52.472;13.380;2022-11-15T08:30:08;14.63;68.73
69009;SHT31;56065;52.472;13.380;2022-11-15T08:32:34;14.56;67.81
69009;SHT31;56065;52.472;13.380;2022-11-15T08:35:00;14.03;68.56
69009;SHT31;56065;52.472;13.380;2022-11-15T08:37:25;13.87;69.26
69009;SHT31;56065;52.472;13.380;2022-11-15T08:39:50;13.59;70.29
69009;SHT31;56065;52.472;13.380;2022-11-15T08:42:15;13.61;70.30
69009;SHT31;56065;52.472;13.380;2022-11-15T08:44:41;13.35;70.55
69009;SHT31;56065;52.472;13.380;2022-11-15T08:47:07;13.55;71.55
69009;SHT31;56065;52.472;13.380;2022-11-15T08:49:35;13.79;69.91
69009;SHT31;56065;52.472;13.380;2022-11-15T08:52:01;13.23;70.77
69009;SHT31;56065;52.472;13.380;2022-11-15T08:54:26;13.27;70.42
69009;SHT31;56065;52.472;13.380;2022-11-15T08:56:51;13.58;71.27
69009;SHT31;56065;52.472;13.380;2022-11-15T08:59:17;14.01;70.01
69009;SHT31;56065;52.472;13.380;2022-11-15T09:01:42;14.17;69.85
69009;SHT31;56065;52.472;13.380;2022-11-15T09:04:07;14.30;70.58
69009;SHT31;56065;52.472;13.380;2022-11-15T09:06:33;14.84;68.07
69009;SHT31;56065;52.472;13.380;2022-11-15T09:09:00;15.42;66.17
69009;SHT31;56065;52.472;13.380;2022-11-15T09:11:25;15.43;66.36
69009;SHT31;56065;52.472;13.380;2022-11-15T09:13:52;15.47;66.16
69009;SHT31;56065;52.472;13.380;2022-11-15T09:16:17;16.45;64.48
69009;SHT31;56065;52.472;13.380;2022-11-15T09:18:42;17.84;61.14
69009;SHT31;56065;52.472;13.380;2022-11-15T09:21:08;19.59;58.74
69009;SHT31;56065;52.472;13.380;2022-11-15T09:23:34;20.23;56.91
69009;SHT31;56065;52.472;13.380;2022-11-15T09:26:00;20.82;53.57
69009;SHT31;56065;52.472;13.380;2022-11-15T09:28:27;20.92;52.68
69009;SHT31;56065;52.472;13.380;2022-11-15T09:30:59;21.56;51.64
69009;SHT31;56065;52.472;13.380;2022-11-15T09:33:25;22.01;51.51
69009;SHT31;56065;52.472;13.380;2022-11-15T09:35:51;22.39;51.36
69009;SHT31;56065;52.472;13.380;2022-11-15T09:38:17;21.94;51.55
69009;SHT31;56065;52.472;13.380;2022-11-15T09:40:43;21.06;51.52
69009;SHT31;56065;52.472;13.380;2022-11-15T09:43:41;21.07;51.35
69009;SHT31;56065;52.472;13.380;2022-11-15T09:48:50;21.50;51.08
69009;SHT31;56065;52.472;13.380;2022-11-15T09:51:31;22.36;50.58
69009;SHT31;56065;52.472;13.380;2022-11-15T09:56:36;23.61;48.57
69009;SHT31;56065;52.472;13.380;2022-11-15T10:04:33;23.79;46.68
69009;SHT31;56065;52.472;13.380;2022-11-15T10:07:23;23.31;46.89
69009;SHT31;56065;52.472;13.380;2022-11-15T10:09:57;23.79;48.12
69009;SHT31;56065;52.472;13.380;2022-11-15T10:12:25;23.57;46.76
69009;SHT31;56065;52.472;13.380;2022-11-15T10:14:58;23.11;47.81
69009;SHT31;56065;52.472;13.380;2022-11-15T10:17:36;21.85;50.04
69009;SHT31;56065;52.472;13.380;2022-11-15T10:20:07;21.60;51.19
69009;SHT31;56065;52.472;13.380;2022-11-15T10:23:01;22.11;50.45
69009;SHT31;56065;52.472;13.380;2022-11-15T10:25:30;22.19;49.84
69009;SHT31;56065;52.472;13.380;2022-11-15T10:28:06;21.58;50.91
69009;SHT31;56065;52.472;13.380;2022-11-15T10:30:37;21.16;52.14
69009;SHT31;56065;52.472;13.380;2022-11-15T10:35:43;20.20;53.84
69009;SHT31;56065;52.472;13.380;2022-11-15T10:38:10;19.86;53.93
69009;SHT31;56065;52.472;13.380;2022-11-15T10:40:37;19.34;54.90
69009;SHT31;56065;52.472;13.380;2022-11-15T10:43:18;19.05;56.01
69009;SHT31;56065;52.472;13.380;2022-11-15T10:45:44;18.88;56.59
69009;SHT31;56065;52.472;13.380;2022-11-15T10:50:43;19.58;55.68
69009;SHT31;56065;52.472;13.380;2022-11-15T10:53:36;19.83;55.31
69009;SHT31;56065;52.472;13.380;2022-11-15T10:56:06;20.13;54.30
69009;SHT31;56065;52.472;13.380;2022-11-15T10:58:42;19.69;54.68
69009;SHT31;56065;52.472;13.380;2022-11-15T11:01:19;19.96;54.89
69009;SHT31;56065;52.472;13.380;2022-11-15T11:04:06;20.37;53.38
69009;SHT31;56065;52.472;13.380;2022-11-15T11:06:52;21.29;52.64
69009;SHT31;56065;52.472;13.380;2022-11-15T11:09:35;22.48;50.61
69009;SHT31;56065;52.472;13.380;2022-11-15T11:12:02;22.89;49.81
69009;SHT31;56065;52.472;13.380;2022-11-15T11:14:30;23.40;48.61
69009;SHT31;56065;52.472;13.380;2022-11-15T11:17:23;23.95;48.08
69009;SHT31;56065;52.472;13.380;2022-11-15T11:20:07;24.15;46.77
69009;SHT31;56065;52.472;13.380;2022-11-15T11:22:54;23.96;46.93
69009;SHT31;56065;52.472;13.380;2022-11-15T11:33:53;26.16;44.20
69009;SHT31;56065;52.472;13.380;2022-11-15T11:44:58;26.65;43.02
69009;SHT31;56065;52.472;13.380;2022-11-15T11:47:30;26.31;44.33
69009;SHT31;56065;52.472;13.380;2022-11-15T11:50:11;26.41;44.87
69009;SHT31;56065;52.472;13.380;2022-11-15T11:53:05;26.43;44.68
69009;SHT31;56065;52.472;13.380;2022-11-15T11:55:32;26.65;43.97
69009;SHT31;56065;52.472;13.380;2022-11-15T11:58:26;27.15;43.08
69009;SHT31;56065;52.472;13.380;2022-11-15T12:00:57;27.17;43.10
69009;SHT31;56065;52.472;13.380;2022-11-15T12:03:42;26.81;43.21
69009;SHT31;56065;52.472;13.380;2022-11-15T12:06:23;26.85;43.27
69009;SHT31;56065;52.472;13.380;2022-11-15T12:08:53;26.86;43.37
69009;SHT31;56065;52.472;13.380;2022-11-15T12:11:41;26.78;43.26
69009;SHT31;56065;52.472;13.380;2022-11-15T12:14:21;26.30;43.83
69009;SHT31;56065;52.472;13.380;2022-11-15T12:16:48;25.49;44.79
69009;SHT31;56065;52.472;13.380;2022-11-15T12:19:13;25.25;45.67
69009;SHT31;56065;52.472;13.380;2022-11-15T12:22:04;24.57;46.06
69009;SHT31;56065;52.472;13.380;2022-11-15T12:24:38;24.01;47.23
69009;SHT31;56065;52.472;13.380;2022-11-15T12:27:18;23.24;48.17
69009;SHT31;56065;52.472;13.380;2022-11-15T12:29:49;22.83;49.71
69009;SHT31;56065;52.472;13.380;2022-11-15T12:34:52;21.67;50.65
69009;SHT31;56065;52.472;13.380;2022-11-15T12:40:24;20.54;53.34
69009;SHT31;56065;52.472;13.380;2022-11-15T12:45:26;19.97;54.49
69009;SHT31;56065;52.472;13.380;2022-11-15T12:47:51;19.56;55.64
69009;SHT31;56065;52.472;13.380;2022-11-15T12:53:31;18.86;57.57
69009;SHT31;56065;52.472;13.380;2022-11-15T12:56:09;18.81;57.66
69009;SHT31;56065;52.472;13.380;2022-11-15T12:58:49;18.59;58.75
69009;SHT31;56065;52.472;13.380;2022-11-15T13:06:57;18.28;60.12
69009;SHT31;56065;52.472;13.380;2022-11-15T13:12:09;18.05;60.94
69009;SHT31;56065;52.472;13.380;2022-11-15T13:14:40;17.98;61.22
69009;SHT31;56065;52.472;13.380;2022-11-15T13:19:45;17.74;61.71
69009;SHT31;56065;52.472;13.380;2022-11-15T13:22:11;17.64;62.07
69009;SHT31;56065;52.472;13.380;2022-11-15T13:24:56;17.57;62.26
69009;SHT31;56065;52.472;13.380;2022-11-15T13:27:21;17.44;62.72
69009;SHT31;56065;52.472;13.380;2022-11-15T13:29:47;17.51;62.77
69009;SHT31;56065;52.472;13.380;2022-11-15T13:32:15;17.57;62.58
69009;SHT31;56065;52.472;13.380;2022-11-15T13:34:45;17.74;62.40
69009;SHT31;56065;52.472;13.380;2022-11-15T13:39:47;17.78;62.09
69009;SHT31;56065;52.472;13.380;2022-11-15T13:42:17;17.78;62.08
69009;SHT31;56065;52.472;13.380;2022-11-15T13:45:00;17.73;62.50
69009;SHT31;56065;52.472;13.380;2022-11-15T13:47:27;17.61;62.62
69009;SHT31;56065;52.472;13.380;2022-11-15T13:49:53;17.61;62.44
69009;SHT31;56065;52.472;13.380;2022-11-15T13:52:19;17.45;62.99
69009;SHT31;56065;52.472;13.380;2022-11-15T13:54:59;17.31;63.24
69009;SHT31;56065;52.472;13.380;2022-11-15T14:03:07;17.05;63.79
69009;SHT31;56065;52.472;13.380;2022-11-15T14:05:33;16.93;63.81
69009;SHT31;56065;52.472;13.380;2022-11-15T14:08:03;16.80;64.20
69009;SHT31;56065;52.472;13.380;2022-11-15T14:10:36;16.61;64.59
69009;SHT31;56065;52.472;13.380;2022-11-15T14:13:03;16.56;64.91
69009;SHT31;56065;52.472;13.380;2022-11-15T14:15:33;16.55;64.86
69009;SHT31;56065;52.472;13.380;2022-11-15T14:17:59;16.51;64.91
69009;SHT31;56065;52.472;13.380;2022-11-15T14:22:52;16.34;65.46
69009;SHT31;56065;52.472;13.380;2022-11-15T14:25:23;16.22;65.52
69009;SHT31;56065;52.472;13.380;2022-11-15T14:28:12;16.10;65.77
69009;SHT31;56065;52.472;13.380;2022-11-15T14:30:41;16.00;66.22
69009;SHT31;56065;52.472;13.380;2022-11-15T14:33:30;15.84;66.48
69009;SHT31;56065;52.472;13.380;2022-11-15T14:35:57;15.69;66.71
69009;SHT31;56065;52.472;13.380;2022-11-15T14:38:26;15.56;67.18
69009;SHT31;56065;52.472;13.380;2022-11-15T14:40:52;15.43;67.14
69009;SHT31;56065;52.472;13.380;2022-11-15T14:43:19;15.38;67.40
69009;SHT31;56065;52.472;13.380;2022-11-15T14:45:44;15.24;67.85
69009;SHT31;56065;52.472;13.380;2022-11-15T14:48:10;15.12;68.00
69009;SHT31;56065;52.472;13.380;2022-11-15T14:50:36;14.96;68.50
69009;SHT31;56065;52.472;13.380;2022-11-15T14:53:02;14.87;68.56
69009;SHT31;56065;52.472;13.380;2022-11-15T14:55:33;14.70;69.28
69009;SHT31;56065;52.472;13.380;2022-11-15T14:58:02;14.60;69.34
69009;SHT31;56065;52.472;13.380;2022-11-15T15:00:29;14.51;69.56
69009;SHT31;56065;52.472;13.380;2022-11-15T15:02:55;14.38;70.22
69009;SHT31;56065;52.472;13.380;2022-11-15T15:05:34;14.34;70.14
69009;SHT31;56065;52.472;13.380;2022-11-15T15:08:00;14.29;70.19
69009;SHT31;56065;52.472;13.380;2022-11-15T15:10:34;14.19;70.66
69009;SHT31;56065;52.472;13.380;2022-11-15T15:13:00;14.06;70.77
69009;SHT31;56065;52.472;13.380;2022-11-15T15:15:34;13.92;71.19
69009;SHT31;56065;52.472;13.380;2022-11-15T15:18:00;13.83;71.78
69009;SHT31;56065;52.472;13.380;2022-11-15T15:20:25;13.74;71.61
69009;SHT31;56065;52.472;13.380;2022-11-15T15:22:51;13.69;71.78
69009;SHT31;56065;52.472;13.380;2022-11-15T15:25:30;13.61;72.59
69009;SHT31;56065;52.472;13.380;2022-11-15T15:27:57;13.51;72.92
69009;SHT31;56065;52.472;13.380;2022-11-15T15:30:23;13.45;73.25
69009;SHT31;56065;52.472;13.380;2022-11-15T15:32:49;13.38;73.17
69009;SHT31;56065;52.472;13.380;2022-11-15T15:35:15;13.28;73.66
69009;SHT31;56065;52.472;13.380;2022-11-15T15:37:42;13.25;73.49
69009;SHT31;56065;52.472;13.380;2022-11-15T15:40:13;13.15;74.03
69009;SHT31;56065;52.472;13.380;2022-11-15T15:42:38;13.10;74.02
69009;SHT31;56065;52.472;13.380;2022-11-15T15:45:04;13.07;74.12
69009;SHT31;56065;52.472;13.380;2022-11-15T15:47:30;13.03;74.86
69009;SHT31;56065;52.472;13.380;2022-11-15T15:49:55;12.99;74.66
69009;SHT31;56065;52.472;13.380;2022-11-15T15:52:21;12.92;75.03
69009;SHT31;56065;52.472;13.380;2022-11-15T15:54:46;12.86;74.88
69009;SHT31;56065;52.472;13.380;2022-11-15T15:57:13;12.77;75.35
69009;SHT31;56065;52.472;13.380;2022-11-15T15:59:38;12.72;75.32
69009;SHT31;56065;52.472;13.380;2022-11-15T16:02:04;12.63;75.65
69009;SHT31;56065;52.472;13.380;2022-11-15T16:04:30;12.59;75.63
69009;SHT31;56065;52.472;13.380;2022-11-15T16:06:59;12.55;76.28
69009;SHT31;56065;52.472;13.380;2022-11-15T16:09:25;12.46;75.96
69009;SHT31;56065;52.472;13.380;2022-11-15T16:12:09;12.42;76.77
69009;SHT31;56065;52.472;13.380;2022-11-15T16:14:34;12.36;76.71
69009;SHT31;56065;52.472;13.380;2022-11-15T16:17:00;12.34;76.82
69009;SHT31;56065;52.472;13.380;2022-11-15T16:19:25;12.26;77.18
69009;SHT31;56065;52.472;13.380;2022-11-15T16:21:51;12.20;77.62
69009;SHT31;56065;52.472;13.380;2022-11-15T16:24:17;12.14;77.75
69009;SHT31;56065;52.472;13.380;2022-11-15T16:26:43;12.10;77.87
69009;SHT31;56065;52.472;13.380;2022-11-15T16:29:10;11.98;78.27
69009;SHT31;56065;52.472;13.380;2022-11-15T16:31:35;11.91;78.81
69009;SHT31;56065;52.472;13.380;2022-11-15T16:34:00;11.87;78.75
69009;SHT31;56065;52.472;13.380;2022-11-15T16:36:26;11.80;78.84
69009;SHT31;56065;52.472;13.380;2022-11-15T16:38:52;11.70;79.49
69009;SHT31;56065;52.472;13.380;2022-11-15T16:41:18;11.64;79.75
69009;SHT31;56065;52.472;13.380;2022-11-15T16:43:47;11.59;79.90
69009;SHT31;56065;52.472;13.380;2022-11-15T16:46:23;11.54;80.17
69009;SHT31;56065;52.472;13.380;2022-11-15T16:48:49;11.46;80.51
69009;SHT31;56065;52.472;13.380;2022-11-15T16:51:14;11.39;80.92
69009;SHT31;56065;52.472;13.380;2022-11-15T16:53:40;11.33;80.96
69009;SHT31;56065;52.472;13.380;2022-11-15T16:56:32;11.26;81.25
69009;SHT31;56065;52.472;13.380;2022-11-15T16:58:59;11.22;81.49
69009;SHT31;56065;52.472;13.380;2022-11-15T17:01:33;11.13;81.86